Tiempo atmosférico en la estación meteorológica de Chipiona, Cádiz (10 m.)



Fecha
DESCASC
Temp. máxima en grados centígrados (hora)
DESCASC
Temp. mínima en grados centígrados (hora)
DESCASC
Temp. media en grados centígrados
DESCASC
Racha de viento máxima en m/sg (hora)
DESCASC
Velocidad máxima media en intervalos de 10 minutos(hora)
DESCASC
Precipitaciones diarias en mm
DESCASC
Precipitaciones de 00:00 a 06:00 en mm
DESCASC
Precipitaciones de 06:00 a 12:00 en mm
DESCASC
Precipitaciones de 12:00 a 18:00 en mm
DESCASC
Precipitaciones de 18:00 a 24:00 en mm
DESCASC
28-05-2020 30.1 (18:30) 16.4 (06:40) 23.3 11.39 (21:30) 6.67 (23:30) 0 0 0 0 0
27-05-2020 30.4 (16:10) 18.1 (07:50) 24.3 14.72 (20:00) 8.89 (20:00) 0 0 0 0 0
26-05-2020 31.5 (17:10) 16 (07:30) 23.8 13.61 (20:40) 8.61 (21:00) 0 0 0 0 0
25-05-2020 31.9 (17:10) 16.6 (07:00) 24.3 10.28 (19:30) 6.94 (19:30) 0 0 0 0 0
24-05-2020 32.8 (14:00) 17.5 (00:00) 25.1 11.11 (20:30) 6.67 (20:00) 0 0 0 0 0
23-05-2020 33.8 (17:10) 17.3 (00:00) 25.5 6.39 (17:30) 4.17 (17:30) 0 0 0 0 0
22-05-2020 28.7 (16:10) 15.6 (00:00) 22.2 6.67 (16:40) 4.72 (17:30) 0 0 0 0 0
21-05-2020 27.3 (14:50) 17 (00:00) 22.1 6.94 (14:10) 4.72 (18:10) 0 0 0 0 0
20-05-2020 25.3 (19:00) 16.3 (00:00) 20.8 6.39 (17:20) 4.72 (17:10) 0 0 0 0 0
19-05-2020 29 (14:00) 14.8 (00:00) 21.9 6.94 (17:20) 5.28 (18:00) 0 0 0 0 0
18-05-2020 25 (15:10) 14.2 (00:00) 19.6 7.5 (19:00) 5 (17:10) 0 0 0 0 0
17-05-2020 22.8 (17:50) 13 (00:00) 17.9 7.22 (15:10) 5 (16:20) 0 0 0 0 0
16-05-2020 20.3 (16:00) 13.1 (00:00) 16.7 6.39 (15:00) 4.72 (15:00) 1.6 1.6 0 0 0
15-05-2020 20.4 (18:50) 13.8 (00:00) 17.1 11.11 (10:40) 6.67 (10:30) 11.4 8.8 2.6 0 0
14-05-2020 18.7 (18:00) 13.5 (00:00) 16.1 21.94 (12:50) 9.44 (12:50) 24 0 14.8 4.6 4.6
13-05-2020 21.1 (14:40) 14.9 (00:00) 18 16.11 (17:00) 10 (17:00) 3.4 0 0 0 3.4
12-05-2020 19.1 (16:40) 13.7 (00:00) 16.4 13.33 (08:10) 7.78 (08:20) 9.4 0 9.4 0 0
11-05-2020 21.7 (15:00) 16.3 (00:00) 19 12.78 (10:40) 7.22 (10:40) 0 0 0 0 0
10-05-2020 20 (15:00) 15.3 (00:00) 17.7 14.17 (16:50) 9.17 (16:50) 10.8 0 7 3.8 0
09-05-2020 22.4 (17:00) 15.4 (00:00) 18.9 12.78 (18:30) 8.61 (18:30) 1.2 0 0 0 1.2
08-05-2020 22.3 (12:50) 15.5 (00:00) 18.9 11.39 (11:00) 8.06 (11:00) 0 0 0 0 0
07-05-2020 27.9 (16:10) 15.8 (00:00) 21.8 15 (18:50) 9.17 (18:50) 0 0 0 0 0
06-05-2020 24.4 (15:50) 15.2 (00:00) 19.8 8.33 (18:30) 5.56 (16:30) 0 0 0 0 0
05-05-2020 22.1 (15:30) 15.4 (00:00) 18.8 9.72 (21:50) 6.39 (17:00) 0 0 0 0 0
04-05-2020 24.8 (01:30) 18.5 (00:00) 21.6 15.28 (11:00) 9.72 (03:50) 0 0 0 0 0
03-05-2020 34.3 (16:20) 15.4 (00:00) 24.8 9.72 (23:20) 6.39 (23:20) 0 0 0 0 0
02-05-2020 25.3 (14:10) 14.7 (00:00) 20 6.67 (16:30) 4.44 (16:50) 0 0 0 0 0

Gráficas

Temp. máximas Temp. mínimas Temp. medias Precipitaciones Rachas de viento máximas Velocidades máximas media en intervalos de 10 minutos

Datos horarios

Fecha y hora oficial Temperatura (ºC) Velocidad del viento (km/h) Dirección del viento Racha (km/h) Dirección de racha Precipitación (mm) Presión (hPa) Tendencia (hPa) Humedad (%)
2020-05-31 23:00:00 19.9 0 Calma 5 Nordeste 0 -- -- 77
2020-05-31 22:00:00 21.3 2 Este 12 Sudeste 0 -- -- 72
2020-05-31 21:00:00 22.4 8 Sudeste 22 Sur 0 -- -- 69
2020-05-31 20:00:00 23.5 14 Sur 29 Sur 0 -- -- 70
2020-05-31 19:00:00 24.2 17 Sur 30 Sur 0 -- -- 68
2020-05-31 18:00:00 25 18 Sur 32 Sur 0 -- -- 68
2020-05-31 17:00:00 25.4 18 Sur 27 Sudeste 0 -- -- 63
2020-05-31 16:00:00 23.1 17 Sudeste 32 Sudeste 0 -- -- 63
2020-05-31 15:00:00 23.1 19 Este 36 Sudeste 0 -- -- 75
2020-05-31 14:00:00 21.5 16 Sudeste 31 Sudeste 0 -- -- 81
2020-05-31 13:00:00 22.2 15 Sur 27 Sudeste 0 -- -- 75
2020-05-31 12:00:00 24.3 12 Sur 26 Sur 0 -- -- 58
2020-05-31 11:00:00 24.7 14 Sudeste 42 Sudeste 0 -- -- 47
2020-05-31 10:00:00 22.8 17 Sudeste 29 Sudeste 0 -- -- 45
2020-05-31 09:00:00 19.8 10 Sudeste 15 Este 0 -- -- 47
2020-05-31 08:00:00 17.4 5 Sudeste 9 Sudeste 0 -- -- 56
2020-05-31 07:00:00 16.2 3 Sudeste 6 Sudeste 0 -- -- 71
2020-05-31 06:00:00 15.7 2 Este 5 Este 0 -- -- 70
2020-05-31 05:00:00 15.9 3 Este 10 Sudeste 0 -- -- 68
2020-05-31 04:00:00 17 0 Calma 7 Sur 0 -- -- 61
2020-05-31 03:00:00 18.4 0 Calma 5 Este 0 -- -- 56
2020-05-31 02:00:00 20.3 2 Norte 7 Norte 0 -- -- 43
2020-05-31 01:00:00 20.9 6 Nordeste 12 Este 0 -- -- 42
2020-05-31 00:00:00 21.6 6 Este 20 Este 0 -- -- 39
2020-05-30 23:00:00 22.4 13 Este 22 Este 0 -- -- 39
2020-05-30 22:00:00 23.7 17 Sudeste 30 Sudeste 0 -- -- 38
2020-05-30 21:00:00 26.1 16 Sudeste 28 Sudeste 0 -- -- 40
2020-05-30 20:00:00 29.4 17 Sudeste 33 Sudeste 0 -- -- 30
2020-05-30 19:00:00 30.1 20 Sudeste 33 Sudeste 0 -- -- 30
2020-05-30 18:00:00 30.5 20 Sudeste 32 Sudeste 0 -- -- 29
2020-05-30 17:00:00 33 15 Sudeste 35 Este 0 -- -- 27
2020-05-30 16:00:00 32.8 14 Sudeste 28 Sudeste 0 -- -- 29
2020-05-30 15:00:00 32.2 9 Este 23 Sudeste 0 -- -- 30
2020-05-30 14:00:00 31.3 6 Este 27 Sudeste 0 -- -- 28
2020-05-30 13:00:00 30.1 8 Este 27 Sudeste 0 -- -- 27
2020-05-30 12:00:00 28.5 10 Sudeste 25 Este 0 -- -- 32
2020-05-30 11:00:00 26.2 13 Este 22 Este 0 -- -- 45
2020-05-30 10:00:00 24 10 Nordeste 18 Este 0 -- -- 53
2020-05-30 09:00:00 20.9 12 Nordeste 19 Nordeste 0 -- -- 68
2020-05-30 08:00:00 18.1 5 Nordeste 10 Nordeste 0 -- -- 72
2020-05-30 07:00:00 18.2 8 Nordeste 17 Este 0 -- -- 60
2020-05-30 06:00:00 19.6 13 Este 21 Este 0 -- -- 44
2020-05-30 05:00:00 19.9 12 Este 22 Este 0 -- -- 44
2020-05-30 04:00:00 19.9 12 Este 23 Este 0 -- -- 46
2020-05-30 03:00:00 20.2 13 Sudeste 23 Sudeste 0 -- -- 51
2020-05-30 02:00:00 19.6 7 Sudeste 14 Sur 0 -- -- 57
2020-05-30 01:00:00 20.4 8 Sudeste 15 Sur 0 -- -- 55
2020-05-30 00:00:00 20.7 3 Sudoeste 18 Sudeste 0 -- -- 55
2020-05-29 23:00:00 21.2 6 Sudeste 15 Sudeste 0 -- -- 58
2020-05-29 22:00:00 22 8 Sur 12 Sur 0 -- -- 64
2020-05-29 21:00:00 23.6 7 Sur 17 Sur 0 -- -- 67
2020-05-29 20:00:00 24.3 9 Sudoeste 19 Sudoeste 0 -- -- 67
2020-05-29 19:00:00 25.3 11 Sudoeste 21 Oeste 0 -- -- 65
2020-05-29 18:00:00 25.2 14 Sudoeste 27 Sudoeste 0 -- -- 66
2020-05-29 17:00:00 24.8 19 Oeste 28 Sudoeste 0 -- -- 71
2020-05-29 16:00:00 25.5 19 Oeste 27 Oeste 0 -- -- 66
2020-05-29 15:00:00 26.7 16 Oeste 25 Oeste 0 -- -- 55
2020-05-29 14:00:00 26.6 14 Oeste 23 Oeste 0 -- -- 52
2020-05-29 13:00:00 25.7 15 Oeste 21 Oeste 0 -- -- 53
2020-05-29 12:00:00 25.3 10 Oeste 14 Oeste 0 -- -- 53
2020-05-29 11:00:00 23.9 6 Noroeste 11 Norte 0 -- -- 58
2020-05-29 10:00:00 23.3 3 Nordeste 9 Nordeste 0 -- -- 56
2020-05-29 09:00:00 20.5 0 Calma 4 Este 0 -- -- 71
2020-05-29 08:00:00 16.2 2 Este 3 Este 0 -- -- 84
2020-05-29 07:00:00 16.6 0 Calma 8 Este 0 -- -- 79
2020-05-29 06:00:00 17.4 6 Nordeste 9 Nordeste 0 -- -- 77
2020-05-29 05:00:00 18.1 3 Nordeste 5 Noroeste 0 -- -- 80
2020-05-29 04:00:00 19.4 4 Noroeste 9 Norte 0 -- -- 75
2020-05-29 03:00:00 20 4 Norte 26 Este 0 -- -- 67
2020-05-29 02:00:00 20.9 19 Este 40 Este 0 -- -- 65
2020-05-29 01:00:00 21 21 Este 40 Sudeste 0 -- -- 67
2020-05-29 00:00:00 21.2 23 Este 41 Este 0 -- -- 65
2020-05-28 23:00:00 21.6 22 Este 36 Este 0 -- -- 63
2020-05-28 22:00:00 22.7 17 Este 41 Sudeste 0 -- -- 59
2020-05-28 21:00:00 25.4 19 Sudeste 34 Sudeste 0 -- -- 51
2020-05-28 20:00:00 27.8 19 Sudeste 32 Este 0 -- -- 45
2020-05-28 19:00:00 29.7 18 Este 31 Este 0 -- -- 40
2020-05-28 18:00:00 29.2 5 Noroeste 21 Oeste 0 -- -- 42
2020-05-28 17:00:00 27.5 11 Oeste 27 Oeste 0 -- -- 55
2020-05-28 16:00:00 26.8 18 Oeste 27 Oeste 0 -- -- 61
2020-05-28 15:00:00 26.8 16 Oeste 26 Oeste 0 -- -- 58
2020-05-28 14:00:00 27.9 14 Oeste 23 Oeste 0 -- -- 56
2020-05-28 13:00:00 28.4 7 Este 21 Este 0 -- -- 43
2020-05-28 12:00:00 27.1 10 Nordeste 27 Este 0 -- -- 48
2020-05-28 11:00:00 25.6 16 Este 36 Este 0 -- -- 50
2020-05-28 10:00:00 24 17 Este 35 Este 0 -- -- 59
2020-05-28 09:00:00 21.3 7 Nordeste 16 Nordeste 0 -- -- 66
2020-05-28 08:00:00 18 5 Nordeste 12 Este 0 -- -- 75
2020-05-28 07:00:00 16.9 5 Nordeste 14 Este 0 -- -- 71
2020-05-28 06:00:00 17.6 4 Nordeste 10 Nordeste 0 -- -- 67
2020-05-28 05:00:00 19.1 6 Nordeste 13 Nordeste 0 -- -- 60
2020-05-28 04:00:00 19.2 6 Nordeste 13 Este 0 -- -- 55
2020-05-28 03:00:00 18.3 8 Nordeste 9 Nordeste 0 -- -- 63
2020-05-28 02:00:00 18.5 3 Nordeste 6 Nordeste 0 -- -- 68
2020-05-28 01:00:00 20.3 4 Norte 20 Este 0 -- -- 60
2020-05-28 00:00:00 22.2 16 Este 37 Este 0 -- -- 53
2020-05-27 23:00:00 22.9 27 Este 49 Este 0 -- -- 52
2020-05-27 22:00:00 23.3 27 Este 46 Sudeste 0 -- -- 50
2020-05-27 21:00:00 25 30 Este 51 Este 0 -- -- 45
2020-05-27 20:00:00 26.9 32 Este 53 Este 0 -- -- 40
2020-05-27 19:00:00 28.6 27 Este 49 Este 0 -- -- 40
2020-05-27 18:00:00 29.5 28 Este 41 Este 0 -- -- 40
2020-05-27 17:00:00 30.1 26 Este 43 Este 0 -- -- 40
2020-05-27 16:00:00 30.2 26 Este 44 Este 0 -- -- 42
2020-05-27 15:00:00 30 22 Este 39 Este 0 -- -- 44
2020-05-27 14:00:00 29.2 22 Este 37 Este 0 -- -- 47
2020-05-27 13:00:00 28.7 15 Este 33 Este 0 -- -- 46
2020-05-27 12:00:00 27.2 17 Este 30 Este 0 -- -- 49
2020-05-27 11:00:00 25.7 13 Este 30 Este 0 -- -- 53
2020-05-27 10:00:00 23.8 16 Este 29 Este 0 -- -- 58
2020-05-27 09:00:00 21.5 10 Este 17 Este 0 -- -- 63
2020-05-27 08:00:00 18.1 4 Sudeste 10 Nordeste 0 -- -- 70
2020-05-27 07:00:00 18.9 7 Este 14 Este 0 -- -- 63
2020-05-27 06:00:00 19.1 4 Nordeste 15 Nordeste 0 -- -- 63
2020-05-27 05:00:00 20.5 12 Nordeste 21 Este 0 -- -- 60
2020-05-27 04:00:00 20.4 10 Este 23 Este 0 -- -- 61
2020-05-27 03:00:00 19.7 8 Nordeste 14 Nordeste 0 -- -- 64
2020-05-27 02:00:00 20.9 8 Nordeste 28 Este 0 -- -- 60
2020-05-27 01:00:00 22.1 22 Este 38 Este 0 -- -- 55
2020-05-27 00:00:00 22.6 25 Este 45 Sudeste 0 -- -- 51
2020-05-26 23:00:00 22.6 27 Este 47 Sudeste 0 -- -- 53
2020-05-26 22:00:00 23.1 27 Este 47 Este 0 -- -- 53
2020-05-26 21:00:00 25 31 Sudeste 49 Este 0 -- -- 49
2020-05-26 20:00:00 27.3 23 Sudeste 41 Sudeste 0 -- -- 45
2020-05-26 19:00:00 29 26 Sudeste 38 Este 0 -- -- 42
2020-05-26 18:00:00 30.6 22 Este 37 Este 0 -- -- 39
2020-05-26 17:00:00 31.1 12 Este 29 Nordeste 0 -- -- 38
2020-05-26 16:00:00 28.4 13 Oeste 22 Oeste 0 -- -- 49
2020-05-26 15:00:00 29 7 Oeste 21 Este 0 -- -- 48
2020-05-26 14:00:00 30.4 8 Este 21 Sudeste 0 -- -- 34
2020-05-26 13:00:00 29.3 11 Este 23 Este 0 -- -- 36
2020-05-26 12:00:00 27.7 12 Este 21 Este 0 -- -- 39
2020-05-26 11:00:00 25.7 9 Este 18 Este 0 -- -- 39
2020-05-26 10:00:00 23.6 9 Este 14 Este 0 -- -- 50
2020-05-26 09:00:00 21.2 2 Este 5 Nordeste 0 -- -- 76
2020-05-26 08:00:00 16.6 2 Nordeste 4 Nordeste 0 -- -- 88
2020-05-26 07:00:00 16.6 3 Nordeste 9 Nordeste 0 -- -- 86
2020-05-26 06:00:00 17 3 Este 9 Nordeste 0 -- -- 82
2020-05-26 05:00:00 18 5 Nordeste 13 Nordeste 0 -- -- 65
2020-05-26 04:00:00 18.6 9 Nordeste 13 Nordeste 0 -- -- 59
2020-05-26 03:00:00 19.7 5 Norte 14 Norte 0 -- -- 67
2020-05-26 02:00:00 20.6 9 Este 24 Este 0 -- -- 55
2020-05-26 01:00:00 21.5 14 Este 31 Este 0 -- -- 53
2020-05-26 00:00:00 22.4 18 Este 30 Este 0 -- -- 50
2020-05-25 23:00:00 22.6 15 Este 33 Este 0 -- -- 50
2020-05-25 22:00:00 23.4 17 Este 35 Este 0 -- -- 53
2020-05-25 21:00:00 25.8 17 Sudeste 33 Sudeste 0 -- -- 51
2020-05-25 20:00:00 27.6 21 Sudeste 37 Sudeste 0 -- -- 49
2020-05-25 19:00:00 28.9 22 Sudeste 35 Sudeste 0 -- -- 46
2020-05-25 18:00:00 30.6 19 Sudeste 33 Sudeste 0 -- -- 45
2020-05-25 17:00:00 31.8 15 Sudeste 26 Este 0 -- -- 45
2020-05-25 16:00:00 31.4 9 Oeste 17 Oeste 0 -- -- 43
2020-05-25 15:00:00 29.8 11 Oeste 17 Oeste 0 -- -- 43
2020-05-25 14:00:00 28.8 13 Oeste 19 Este 0 -- -- 48
2020-05-25 13:00:00 29.5 8 Nordeste 19 Nordeste 0 -- -- 39
2020-05-25 12:00:00 28 9 Nordeste 18 Nordeste 0 -- -- 44
2020-05-25 11:00:00 25.5 8 Norte 18 Nordeste 0 -- -- 50
2020-05-25 10:00:00 23.4 8 Nordeste 17 Nordeste 0 -- -- 55
2020-05-25 09:00:00 20.9 5 Nordeste 14 Nordeste 0 -- -- 62
2020-05-25 08:00:00 17.8 5 Nordeste 12 Nordeste 0 -- -- 69
2020-05-25 07:00:00 16.6 6 Nordeste 8 Nordeste 0 -- -- 77
2020-05-25 06:00:00 17.4 3 Nordeste 8 Este 0 -- -- 77
2020-05-25 05:00:00 18 3 Norte 6 Nordeste 0 -- -- 73
2020-05-25 04:00:00 19.2 4 Nordeste 16 Este 0 -- -- 66
2020-05-25 03:00:00 20.5 11 Este 25 Este 0 -- -- 60
2020-05-25 02:00:00 21.5 13 Este 37 Este 0 -- -- 55
2020-05-25 01:00:00 21.6 15 Sudeste 30 Este 0 -- -- 49
2020-05-25 00:00:00 22.5 17 Este 35 Este 0 -- -- 41
2020-05-24 23:00:00 23 17 Este 36 Sudeste 0 -- -- 40
2020-05-24 22:00:00 24.4 21 Este 38 Este 0 -- -- 39
2020-05-24 21:00:00 26.6 18 Este 40 Sudeste 0 -- -- 39
2020-05-24 20:00:00 28.6 24 Sudeste 36 Sudeste 0 -- -- 37
2020-05-24 19:00:00 31.2 18 Sudeste 32 Sudeste 0 -- -- 39
2020-05-24 18:00:00 30.7 4 Sudoeste 15 Noroeste 0 -- -- 48
2020-05-24 17:00:00 29.3 10 Oeste 19 Oeste 0 -- -- 54
2020-05-24 16:00:00 28.6 13 Oeste 21 Oeste 0 -- -- 55
2020-05-24 15:00:00 28.5 14 Oeste 24 Oeste 0 -- -- 62
2020-05-24 14:00:00 32.8 14 Este 25 Este 0 -- -- 30
2020-05-24 13:00:00 31.6 11 Este 24 Este 0 -- -- 32
2020-05-24 12:00:00 30.2 12 Este 23 Este 0 -- -- 33
2020-05-24 11:00:00 28.3 15 Este 26 Este 0 -- -- 37
2020-05-24 10:00:00 26.1 12 Este 19 Este 0 -- -- 45
2020-05-24 09:00:00 23.1 4 Nordeste 11 Este 0 -- -- 54
2020-05-24 08:00:00 19 4 Nordeste 8 Nordeste 0 -- -- 77
2020-05-24 07:00:00 17.7 3 Nordeste 5 Este 0 -- -- 84
2020-05-24 06:00:00 18 0 Calma 5 Este 0 -- -- 81
2020-05-24 05:00:00 18.4 2 Este 5 Este 0 -- -- 77
2020-05-24 04:00:00 19 2 Este 4 Sur 0 -- -- 79
2020-05-24 03:00:00 19.6 2 Sudeste 5 Este 0 -- -- 74
2020-05-24 02:00:00 20.6 4 Este 5 Este 0 -- -- 71
2020-05-24 01:00:00 21.8 4 Este 7 Este 0 -- -- 65
2020-05-24 00:00:00 22.6 2 Norte 8 Sudeste 0 -- -- 71
2020-05-23 23:00:00 23.7 3 Sudeste 6 Sur 0 -- -- 77
2020-05-23 22:00:00 25.4 3 Sur 6 Sudoeste 0 -- -- 66
2020-05-23 21:00:00 27.4 5 Oeste 10 Oeste 0 -- -- 65
2020-05-23 20:00:00 30.2 7 Oeste 15 Sudoeste 0 -- -- 54
2020-05-23 19:00:00 31.4 8 Sudoeste 17 Sudoeste 0 -- -- 47
2020-05-23 18:00:00 31.9 13 Sudoeste 23 Sur 0 -- -- 45
2020-05-23 17:00:00 33.6 13 Sudoeste 20 Sudoeste 0 -- -- 37
2020-05-23 16:00:00 32.2 10 Sudoeste 15 Sudoeste 0 -- -- 48
2020-05-23 15:00:00 31.8 13 Oeste 18 Oeste 0 -- -- 51
2020-05-23 14:00:00 32.1 10 Noroeste 17 Norte 0 -- -- 48
2020-05-23 13:00:00 31.5 9 Norte 17 Noroeste 0 -- -- 43
2020-05-23 12:00:00 29.6 6 Nordeste 13 Este 0 -- -- 51
2020-05-23 11:00:00 26.4 6 Norte 11 Norte 0 -- -- 62
2020-05-23 10:00:00 24.6 5 Nordeste 10 Nordeste 0 -- -- 72
2020-05-23 09:00:00 21.2 5 Nordeste 7 Nordeste 0 -- -- 84
2020-05-23 08:00:00 17.7 2 Nordeste 4 Norte 0 -- -- 89
2020-05-23 07:00:00 17.5 3 Este 9 Sudeste 0 -- -- 86
2020-05-23 06:00:00 18 2 Este 5 Este 0 -- -- 89
2020-05-23 05:00:00 18.5 2 Nordeste 6 Este 0 -- -- 90
2020-05-23 04:00:00 18.8 4 Este 7 Sudeste 0 -- -- 89
2020-05-23 03:00:00 19 3 Sudeste 5 Sudeste 0 -- -- 90
2020-05-23 02:00:00 19.5 3 Sudeste 4 Sudeste 0 -- -- 89
2020-05-23 01:00:00 20.1 3 Sudeste 6 Sudeste 0 -- -- 87
2020-05-23 00:00:00 21 5 Este 7 Sudeste 0 -- -- 86
2020-05-22 23:00:00 22.2 4 Sur 6 Sudeste 0 -- -- 85
2020-05-22 22:00:00 23.5 4 Sur 9 Oeste 0 -- -- 82
2020-05-22 21:00:00 25.4 9 Noroeste 17 Oeste 0 -- -- 75
2020-05-22 20:00:00 27 9 Noroeste 19 Oeste 0 -- -- 67
2020-05-22 19:00:00 27.6 9 Oeste 22 Oeste 0 -- -- 64
2020-05-22 18:00:00 27.6 16 Oeste 24 Oeste 0 -- -- 65
2020-05-22 17:00:00 28.3 15 Oeste 24 Oeste 0 -- -- 61
2020-05-22 16:00:00 28.6 12 Oeste 23 Oeste 0 -- -- 61
2020-05-22 15:00:00 27.8 12 Oeste 18 Oeste 0 -- -- 71
2020-05-22 14:00:00 27.9 11 Oeste 16 Oeste 0 -- -- 68
2020-05-22 13:00:00 27.4 11 Oeste 15 Oeste 0 -- -- 69
2020-05-22 12:00:00 26.9 6 Norte 12 Norte 0 -- -- 69
2020-05-22 11:00:00 24.7 7 Norte 12 Norte 0 -- -- 71
2020-05-22 10:00:00 22.7 5 Norte 9 Noroeste 0 -- -- 81
2020-05-22 09:00:00 20.6 0 Calma 4 Norte 0 -- -- 92
2020-05-22 08:00:00 16.1 0 Calma 4 Este 0 -- -- 97
2020-05-22 07:00:00 15.6 3 Este 5 Este 0 -- -- 96
2020-05-22 06:00:00 16 4 Sudeste 5 Sudeste 0 -- -- 96
2020-05-22 05:00:00 16.5 2 Nordeste 4 Nordeste 0 -- -- 95
2020-05-22 04:00:00 17.2 2 Este 5 Este 0 -- -- 95
2020-05-22 03:00:00 17.7 3 Este 6 Sudeste 0 -- -- 95
2020-05-22 02:00:00 17.9 4 Sudeste 7 Este 0 -- -- 94
2020-05-22 01:00:00 18.6 3 Este 6 Este 0 -- -- 94
2020-05-22 00:00:00 19.2 4 Este 7 Este 0 -- -- 92
2020-05-21 23:00:00 20.1 0 Calma 5 Oeste 0 -- -- 90
2020-05-21 22:00:00 21.3 4 Oeste 15 Oeste 0 -- -- 88
2020-05-21 21:00:00 22.4 10 Oeste 17 Oeste 0 -- -- 84
2020-05-21 20:00:00 22.8 9 Oeste 19 Oeste 0 -- -- 85
2020-05-21 19:00:00 23.8 13 Oeste 22 Oeste 0 -- -- 80
2020-05-21 18:00:00 25.3 14 Oeste 23 Sudoeste 0 -- -- 75
2020-05-21 17:00:00 25.7 15 Sudoeste 24 Sudoeste 0 -- -- 73
2020-05-21 16:00:00 26.7 12 Sur 21 Sur 0 -- -- 70
2020-05-21 15:00:00 27.3 13 Sur 25 Sudoeste 0 -- -- 70
2020-05-21 14:00:00 27.1 13 Sur 20 Sudoeste 0 -- -- 71
2020-05-21 13:00:00 26.6 12 Sur 19 Sur 0 -- -- 73
2020-05-21 12:00:00 26.4 5 Oeste 10 Oeste 0 -- -- 73
2020-05-21 11:00:00 26 5 Nordeste 11 Este 0 -- -- 73
2020-05-21 10:00:00 23.5 3 Sudeste 6 Sudeste 0 -- -- 82
2020-05-21 09:00:00 20.8 2 Sudeste 5 Sudeste 0 -- -- 98
2020-05-21 08:00:00 17.4 3 Este 4 Este 0 -- -- 98
2020-05-21 07:00:00 17.1 4 Sudeste 5 Sudeste 0 -- -- 98
2020-05-21 06:00:00 17.8 3 Sudeste 6 Sudeste 0 -- -- 98
2020-05-21 05:00:00 18 4 Sur 8 Sudeste 0 -- -- 98
2020-05-21 04:00:00 17.7 4 Sur 7 Sudeste 0 -- -- 96
2020-05-21 03:00:00 17.2 3 Sur 5 Sudeste 0 -- -- 93
2020-05-21 02:00:00 17.7 4 Sudeste 5 Sudeste 0 -- -- 92
2020-05-21 01:00:00 18.4 3 Sur 5 Sudeste 0 -- -- 91
2020-05-21 00:00:00 19.4 3 Sudeste 5 Oeste 0 -- -- 90
2020-05-20 23:00:00 20.9 4 Oeste 15 Oeste 0 -- -- 87
2020-05-20 22:00:00 21.3 7 Oeste 14 Oeste 0 -- -- 84
2020-05-20 21:00:00 22.9 11 Oeste 20 Oeste 0 -- -- 76
2020-05-20 20:00:00 24.3 12 Oeste 18 Sudoeste 0 -- -- 70
2020-05-20 19:00:00 25.3 10 Oeste 18 Sudoeste 0 -- -- 65
2020-05-20 18:00:00 24.9 13 Oeste 23 Oeste 0 -- -- 67
2020-05-20 17:00:00 24.7 15 Oeste 21 Oeste 0 -- -- 69
2020-05-20 16:00:00 24.2 16 Oeste 22 Oeste 0 -- -- 72
2020-05-20 15:00:00 24.5 13 Oeste 20 Oeste 0 -- -- 74
2020-05-20 14:00:00 23.8 12 Oeste 21 Oeste 0 -- -- 77
2020-05-20 13:00:00 23.6 11 Oeste 15 Oeste 0 -- -- 79
2020-05-20 12:00:00 23.6 9 Oeste 14 Oeste 0 -- -- 80
2020-05-20 11:00:00 22.9 10 Oeste 13 Oeste 0 -- -- 80
2020-05-20 10:00:00 21.4 3 Sudoeste 9 Sur 0 -- -- 79
2020-05-20 09:00:00 20 5 Sur 8 Sur 0 -- -- 83
2020-05-20 08:00:00 16.5 2 Este 6 Nordeste 0 -- -- 95
2020-05-20 07:00:00 16.7 2 Sur 8 Este 0 -- -- 95
2020-05-20 06:00:00 17.1 3 Sudeste 7 Este 0 -- -- 96
2020-05-20 05:00:00 17 4 Este 7 Nordeste 0 -- -- 95
2020-05-20 04:00:00 17.2 0 Calma 4 Este 0 -- -- 94
2020-05-20 03:00:00 17.6 2 Este 4 Sudeste 0 -- -- 93
2020-05-20 02:00:00 18.2 3 Sur 5 Sudeste 0 -- -- 92
2020-05-20 01:00:00 18.8 3 Sudeste 8 Sur 0 -- -- 91
2020-05-20 00:00:00 19.5 4 Sudeste 5 Sudeste 0 -- -- 88
2020-05-19 23:00:00 20.5 3 Oeste 9 Oeste 0 -- -- 84
2020-05-19 22:00:00 21.4 7 Oeste 17 Oeste 0 -- -- 82
2020-05-19 21:00:00 23.8 5 Sudoeste 15 Sudoeste 0 -- -- 71
2020-05-19 20:00:00 24.6 12 Oeste 17 Oeste 0 -- -- 68
2020-05-19 19:00:00 24.7 10 Oeste 22 Oeste 0 -- -- 68
2020-05-19 18:00:00 25.6 19 Oeste 25 Sudoeste 0 -- -- 69
2020-05-19 17:00:00 27.3 15 Oeste 22 Oeste 0 -- -- 65
2020-05-19 16:00:00 28.3 14 Oeste 22 Sudoeste 0 -- -- 60
2020-05-19 15:00:00 28.8 12 Noroeste 17 Noroeste 0 -- -- 53
2020-05-19 14:00:00 29 7 Noroeste 14 Noroeste 0 -- -- 50
2020-05-19 13:00:00 27.6 8 Norte 14 Norte 0 -- -- 55
2020-05-19 12:00:00 25.5 5 Norte 13 Noroeste 0 -- -- 61
2020-05-19 11:00:00 23 6 Norte 12 Norte 0 -- -- 71
2020-05-19 10:00:00 21 4 Norte 10 Nordeste 0 -- -- 79
2020-05-19 09:00:00 20.4 2 Norte 6 Nordeste 0 -- -- 82
2020-05-19 08:00:00 15.6 0 Calma 7 Este 0 -- -- 95
2020-05-19 07:00:00 14.8 4 Este 6 Este 0 -- -- 93
2020-05-19 06:00:00 15 3 Este 5 Sudeste 0 -- -- 93
2020-05-19 05:00:00 15.5 3 Este 5 Este 0 -- -- 92
2020-05-19 04:00:00 16.1 3 Este 4 Este 0 -- -- 92
2020-05-19 03:00:00 16.8 3 Este 6 Este 0 -- -- 91
2020-05-19 02:00:00 17.5 3 Sudeste 9 Este 0 -- -- 89
2020-05-19 01:00:00 19.5 5 Este 12 Oeste 0 -- -- 83
2020-05-19 00:00:00 19.6 4 Oeste 16 Oeste 0 -- -- 86
2020-05-18 23:00:00 19.7 8 Oeste 21 Oeste 0 -- -- 84
2020-05-18 22:00:00 19.8 10 Noroeste 22 Oeste 0 -- -- 82
2020-05-18 21:00:00 21.2 13 Oeste 24 Oeste 0 -- -- 79
2020-05-18 20:00:00 22.7 14 Oeste 25 Oeste 0 -- -- 73
2020-05-18 19:00:00 23.2 16 Oeste 27 Oeste 0 -- -- 71
2020-05-18 18:00:00 23.4 17 Oeste 24 Oeste 0 -- -- 69
2020-05-18 17:00:00 23.6 17 Oeste 25 Oeste 0 -- -- 70
2020-05-18 16:00:00 23.9 17 Oeste 26 Oeste 0 -- -- 68
2020-05-18 15:00:00 24.8 13 Oeste 20 Oeste 0 -- -- 66
2020-05-18 14:00:00 24.2 13 Oeste 20 Noroeste 0 -- -- 64
2020-05-18 13:00:00 23.6 6 Norte 14 Noroeste 0 -- -- 63
2020-05-18 12:00:00 22.2 7 Noroeste 15 Noroeste 0 -- -- 72
2020-05-18 11:00:00 20.8 7 Norte 12 Norte 0 -- -- 70
2020-05-18 10:00:00 19.5 6 Nordeste 10 Este 0 -- -- 75
2020-05-18 09:00:00 17.5 5 Nordeste 10 Norte 0 -- -- 84
2020-05-18 08:00:00 14.7 4 Nordeste 6 Nordeste 0 -- -- 93
2020-05-18 07:00:00 14.4 4 Este 11 Este 0 -- -- 91
2020-05-18 06:00:00 14.8 4 Este 9 Este 0 -- -- 93
2020-05-18 05:00:00 15.5 7 Este 11 Este 0 -- -- 94
2020-05-18 04:00:00 15.8 6 Sudeste 10 Este 0 -- -- 95
2020-05-18 03:00:00 16.5 6 Este 11 Este 0 -- -- 95
2020-05-18 02:00:00 17.1 7 Este 10 Este 0 -- -- 93
2020-05-18 01:00:00 17.6 5 Sudeste 10 Sudeste 0 -- -- 92
2020-05-18 00:00:00 18.7 2 Sur 8 Sudoeste 0 -- -- 88
2020-05-17 23:00:00 19.5 6 Sudoeste 12 Sudoeste 0 -- -- 85
2020-05-17 22:00:00 19.7 4 Sur 9 Sudeste 0 -- -- 83
2020-05-17 21:00:00 20.1 5 Sudeste 14 Oeste 0 -- -- 78
2020-05-17 20:00:00 21.3 10 Oeste 20 Sudoeste 0 -- -- 71
2020-05-17 19:00:00 22.5 13 Sudoeste 21 Oeste 0 -- -- 62
2020-05-17 18:00:00 22.6 11 Sudoeste 22 Oeste 0 -- -- 64
2020-05-17 17:00:00 22.2 15 Oeste 25 Oeste 0 -- -- 69
2020-05-17 16:00:00 22.1 17 Oeste 26 Oeste 0 -- -- 70
2020-05-17 15:00:00 21.8 15 Oeste 21 Sudoeste 0 -- -- 70
2020-05-17 14:00:00 21.5 12 Oeste 18 Oeste 0 -- -- 78
2020-05-17 13:00:00 21.1 10 Oeste 15 Oeste 0 -- -- 79
2020-05-17 12:00:00 20.5 10 Oeste 15 Oeste 0 -- -- 81
2020-05-17 11:00:00 20.1 2 Sudeste 9 Sudeste 0 -- -- 82
2020-05-17 10:00:00 18.4 5 Sudeste 10 Este 0 -- -- 93
2020-05-17 09:00:00 16.3 4 Este 10 Este 0 -- -- 99
2020-05-17 08:00:00 13.5 4 Este 6 Este 0 -- -- 100
2020-05-17 07:00:00 13.1 3 Sudeste 6 Sudeste 0 -- -- 99
2020-05-17 06:00:00 13.5 4 Este 9 Este 0 -- -- 99
2020-05-17 05:00:00 13.8 4 Sudeste 11 Sudeste 0 -- -- 98
2020-05-17 04:00:00 13.7 4 Sudeste 8 Este 0 -- -- 98
2020-05-17 03:00:00 14 2 Este 7 Sudeste 0 -- -- 97
2020-05-17 02:00:00 14.3 4 Este 6 Sudeste 0 -- -- 96
2020-05-17 01:00:00 14.8 4 Sudeste 6 Sudeste 0 -- -- 94
2020-05-17 00:00:00 15.7 2 Sudoeste 9 Sudoeste 0 -- -- 92
2020-05-16 23:00:00 16.3 5 Sur 7 Sudoeste 0 -- -- 92
2020-05-16 22:00:00 17.3 5 Sudoeste 14 Sudoeste 0 -- -- 88
2020-05-16 21:00:00 18.3 8 Sudoeste 14 Sudoeste 0 -- -- 83
2020-05-16 20:00:00 19.2 9 Sur 14 Sur 0 -- -- 79
2020-05-16 19:00:00 18.8 4 Sudoeste 14 Sudoeste 0 -- -- 78
2020-05-16 18:00:00 18.7 6 Sudoeste 18 Sudoeste 0 -- -- 78
2020-05-16 17:00:00 19.2 11 Oeste 22 Sudoeste 0 -- -- 74
2020-05-16 16:00:00 20.3 15 Oeste 22 Oeste 0 -- -- 74
2020-05-16 15:00:00 20 17 Oeste 23 Oeste 0 -- -- 80
2020-05-16 14:00:00 18.6 11 Oeste 19 Oeste 0 -- -- 84
2020-05-16 13:00:00 19.2 13 Oeste 22 Oeste 0 -- -- 82
2020-05-16 12:00:00 19.7 13 Oeste 18 Oeste 0 -- -- 84
2020-05-16 11:00:00 18.8 5 Oeste 11 Sudoeste 0 -- -- 84
2020-05-16 10:00:00 16.4 3 Sudeste 5 Este 0 -- -- 97
2020-05-16 09:00:00 14.8 0 Calma 4 Este 0 -- -- 99
2020-05-16 08:00:00 13.9 0 Calma 5 Este 0 -- -- 98
2020-05-16 07:00:00 13.5 2 Sudeste 5 Este 0 -- -- 98
2020-05-16 06:00:00 13.1 2 Sudeste 5 Sudeste 0 -- -- 97
2020-05-16 05:00:00 13.2 3 Sudeste 5 Este 0 -- -- 96
2020-05-16 04:00:00 13.8 3 Este 4 Este 0 -- -- 96
2020-05-16 03:00:00 14.5 3 Este 5 Este 0 -- -- 94
2020-05-16 02:00:00 15.2 3 Sudoeste 12 Este 1.6 -- -- 92
2020-05-16 01:00:00 16 2 Nordeste 7 Noroeste 0 -- -- 91
2020-05-16 00:00:00 15.1 0 Calma 3 Oeste 0 -- -- 93
2020-05-15 23:00:00 15.5 2 Oeste 5 Oeste 0 -- -- 89
2020-05-15 22:00:00 16.4 2 Oeste 7 Sudoeste 0 -- -- 85
2020-05-15 21:00:00 17.3 6 Sur 22 Sur 0 -- -- 81
2020-05-15 20:00:00 18.4 13 Sur 22 Sur 0 -- -- 75
2020-05-15 19:00:00 20.2 13 Sur 23 Sudeste 0 -- -- 70
2020-05-15 18:00:00 19.7 13 Sur 26 Sudeste 0 -- -- 70
2020-05-15 17:00:00 18.6 17 Sur 33 Sudeste 0 -- -- 70
2020-05-15 16:00:00 18.8 19 Sudeste 32 Sudeste 0 -- -- 70
2020-05-15 15:00:00 18.3 21 Sudeste 32 Sur 0 -- -- 75
2020-05-15 14:00:00 19.4 12 Sudeste 26 Este 0 -- -- 70
2020-05-15 13:00:00 17.1 18 Este 37 Este 0 -- -- 79
2020-05-15 12:00:00 18 22 Sudeste 39 Sudeste 0 -- -- 74
2020-05-15 11:00:00 17.1 19 Este 40 Este 0 -- -- 78
2020-05-15 10:00:00 16 18 Este 31 Este 0 -- -- 83
2020-05-15 09:00:00 14.7 12 Este 25 Este 0 -- -- 89
2020-05-15 08:00:00 13.8 13 Este 27 Sudeste 1.4 -- -- 93
2020-05-15 07:00:00 14.3 10 Sudeste 24 Este 1.2 -- -- 94
2020-05-15 06:00:00 14.8 11 Este 32 Sudeste 0 -- -- 92
2020-05-15 05:00:00 15.1 18 Sudeste 35 Sudeste 0 -- -- 92
2020-05-15 04:00:00 14.1 11 Sudeste 32 Sur 1.2 -- -- 95
2020-05-15 03:00:00 14.7 18 Sudeste 39 Sur 7.6 -- -- 96
2020-05-15 02:00:00 15.7 19 Sur 37 Sur 0 -- -- 85
2020-05-15 01:00:00 15.3 13 Sudeste 34 Sur 0 -- -- 86
2020-05-15 00:00:00 15.8 21 Sudeste 42 Sudeste 0 -- -- 88
2020-05-14 23:00:00 15.5 21 Sudeste 41 Sur 0.4 -- -- 88
2020-05-14 22:00:00 15 14 Sudeste 41 Sudeste 0 -- -- 91
2020-05-14 21:00:00 14.3 21 Sudeste 46 Sur 2.4 -- -- 91
2020-05-14 20:00:00 15.9 15 Sur 58 Sur 1.2 -- -- 91
2020-05-14 19:00:00 16.9 11 Sur 42 Sudoeste 0.6 -- -- 88
2020-05-14 18:00:00 18.7 20 Sur 47 Sur 0 -- -- 79
2020-05-14 17:00:00 15.8 17 Sudoeste 48 Sudoeste 1.2 -- -- 90
2020-05-14 16:00:00 17 15 Sudoeste 52 Sudoeste 1.8 -- -- 90
2020-05-14 15:00:00 18.1 30 Sur 50 Sur 0 -- -- 79
2020-05-14 14:00:00 17.3 22 Sur 44 Sur 0 -- -- 87
2020-05-14 13:00:00 15.3 27 Sur 79 Sur 1.6 -- -- 87
2020-05-14 12:00:00 15.3 11 Sudoeste 36 Oeste 0.6 -- -- 89
2020-05-14 11:00:00 14.5 17 Sur 34 Sudoeste 2 -- -- 92
2020-05-14 10:00:00 13.6 24 Sudoeste 62 Sudoeste 3.8 -- -- 93
2020-05-14 09:00:00 14.7 21 Sudoeste 46 Sudoeste 5.8 -- -- 88
2020-05-14 08:00:00 14.5 20 Sur 39 Sur 0.6 -- -- 88
2020-05-14 07:00:00 14 20 Sur 50 Sur 2 -- -- 85
2020-05-14 06:00:00 13.5 12 Sudeste 25 Este 0 -- -- 91
2020-05-14 05:00:00 14.1 7 Sudeste 15 Sudeste 0 -- -- 89
2020-05-14 04:00:00 15.5 10 Sur 22 Sur 0 -- -- 78
2020-05-14 03:00:00 15.5 9 Sudoeste 20 Sudoeste 0 -- -- 80
2020-05-14 02:00:00 15.7 9 Sudoeste 26 Sudoeste 0 -- -- 81
2020-05-14 01:00:00 15.6 10 Sudoeste 21 Sudoeste 0 -- -- 81
2020-05-14 00:00:00 15.3 3 Sudeste 17 Sudoeste 1.6 -- -- 90
2020-05-13 23:00:00 15.5 9 Sudoeste 22 Sudoeste 0 -- -- 83
2020-05-13 22:00:00 14.9 8 Sudoeste 22 Sudoeste 0.2 -- -- 88
2020-05-13 21:00:00 15.9 11 Sudoeste 24 Sur 0 -- -- 78
2020-05-13 20:00:00 15.3 13 Sudoeste 26 Sudoeste 0 -- -- 86
2020-05-13 19:00:00 15.2 9 Sudoeste 30 Oeste 1.6 -- -- 90
2020-05-13 18:00:00 15.5 22 Oeste 48 Sudoeste 0 -- -- 84
2020-05-13 17:00:00 16.4 36 Sudoeste 58 Oeste 0 -- -- 78
2020-05-13 16:00:00 20.7 24 Sur 44 Sur 0 -- -- 64
2020-05-13 15:00:00 20.5 21 Sur 40 Sur 0 -- -- 64
2020-05-13 14:00:00 20.9 23 Sur 39 Sudeste 0 -- -- 61
2020-05-13 13:00:00 20.2 21 Sur 40 Sur 0 -- -- 63
2020-05-13 12:00:00 20 18 Sur 32 Sur 0 -- -- 62
2020-05-13 11:00:00 19 19 Sur 32 Sur 0 -- -- 69
2020-05-13 10:00:00 17.7 10 Sur 21 Sudoeste 0 -- -- 78
2020-05-13 09:00:00 16.2 11 Sudoeste 23 Sudoeste 0 -- -- 85
2020-05-13 08:00:00 16 4 Sur 12 Sur 0 -- -- 78
2020-05-13 07:00:00 16.1 10 Sudoeste 20 Sudoeste 0 -- -- 79
2020-05-13 06:00:00 15.9 9 Oeste 21 Sur 0 -- -- 84
2020-05-13 05:00:00 14.9 5 Sur 12 Sudeste 0 -- -- 83
2020-05-13 04:00:00 15.6 7 Sur 18 Sudoeste 0 -- -- 81
2020-05-13 03:00:00 15.6 8 Sudoeste 19 Sudoeste 0 -- -- 80
2020-05-13 02:00:00 16.1 12 Sudoeste 25 Sudoeste 0 -- -- 75
2020-05-13 01:00:00 16.2 10 Sudoeste 24 Sudoeste 0 -- -- 79
2020-05-13 00:00:00 16 11 Sudoeste 23 Sudoeste 0 -- -- 79
2020-05-12 23:00:00 16.1 11 Sudoeste 20 Sudoeste 0 -- -- 79
2020-05-12 22:00:00 16.2 11 Sudoeste 24 Sudoeste 0 -- -- 78
2020-05-12 21:00:00 17.2 15 Sudoeste 26 Sudoeste 0 -- -- 73
2020-05-12 20:00:00 18 18 Sudoeste 28 Sudoeste 0 -- -- 70
2020-05-12 19:00:00 18.5 18 Sudoeste 30 Sur 0 -- -- 68
2020-05-12 18:00:00 19 18 Sudoeste 31 Sur 0 -- -- 68
2020-05-12 17:00:00 18.5 18 Sur 32 Sur 0 -- -- 70
2020-05-12 16:00:00 19 19 Sur 32 Sudoeste 0 -- -- 69
2020-05-12 15:00:00 17.7 12 Sur 23 Sur 0 -- -- 75
2020-05-12 14:00:00 16.6 13 Sur 32 Sudeste 0 -- -- 85
2020-05-12 13:00:00 15.5 19 Sudeste 31 Sudeste 0 -- -- 92
2020-05-12 12:00:00 15.5 17 Sudeste 31 Sudeste 0 -- -- 87
2020-05-12 11:00:00 15 18 Este 27 Este 3 -- -- 94
2020-05-12 10:00:00 13.9 13 Este 23 Este 2.4 -- -- 96
2020-05-12 09:00:00 14.2 10 Oeste 48 Oeste 3.8 -- -- 92
2020-05-12 08:00:00 14.9 9 Sudoeste 24 Oeste 0.2 -- -- 93
2020-05-12 07:00:00 15.3 9 Este 13 Este 0 -- -- 96
2020-05-12 06:00:00 15.2 7 Este 14 Este 0 -- -- 96
2020-05-12 05:00:00 14.4 4 Este 7 Sudeste 0 -- -- 95
2020-05-12 04:00:00 14.3 4 Sudeste 8 Sudeste 0 -- -- 95
2020-05-12 03:00:00 14.8 0 Calma 6 Este 0 -- -- 93
2020-05-12 02:00:00 15.7 3 Sudeste 5 Sudeste 0 -- -- 92
2020-05-12 01:00:00 15.7 3 Sur 4 Sudeste 0 -- -- 91
2020-05-12 00:00:00 16.3 3 Sudeste 5 Sudeste 0 -- -- 89
2020-05-11 23:00:00 16.8 4 Sudeste 5 Sudeste 0 -- -- 87
2020-05-11 22:00:00 17.5 5 Sudoeste 14 Sudoeste 0 -- -- 83
2020-05-11 21:00:00 18.4 8 Sudoeste 16 Sudoeste 0 -- -- 79
2020-05-11 20:00:00 19.1 11 Oeste 26 Sudoeste 0 -- -- 76
2020-05-11 19:00:00 19.7 14 Sudoeste 27 Oeste 0 -- -- 74
2020-05-11 18:00:00 20.3 15 Sudoeste 33 Sudoeste 0 -- -- 73
2020-05-11 17:00:00 21.4 19 Sudoeste 35 Sudoeste 0 -- -- 71
2020-05-11 16:00:00 21.5 23 Sudoeste 39 Sudoeste 0 -- -- 69
2020-05-11 15:00:00 21.7 21 Sudoeste 36 Sudoeste 0 -- -- 69
2020-05-11 14:00:00 21.2 22 Sudoeste 39 Sudoeste 0 -- -- 73
2020-05-11 13:00:00 20.6 24 Sudoeste 38 Sudoeste 0 -- -- 72
2020-05-11 12:00:00 20 20 Sudoeste 37 Sudoeste 0 -- -- 77
2020-05-11 11:00:00 19.4 20 Sudoeste 46 Sudoeste 0 -- -- 83
2020-05-11 10:00:00 20.1 22 Sur 43 Sudoeste 0 -- -- 80
2020-05-11 09:00:00 19.4 21 Sur 37 Sur 0 -- -- 85
2020-05-11 08:00:00 17.8 17 Sur 33 Sur 0 -- -- 88
2020-05-11 07:00:00 17.3 16 Sur 38 Sur 0 -- -- 88
2020-05-11 06:00:00 17.6 17 Sur 32 Sudoeste 0 -- -- 84
2020-05-11 05:00:00 17.5 17 Sur 32 Sur 0 -- -- 85
2020-05-11 04:00:00 17.5 16 Sudoeste 34 Sudoeste 0 -- -- 85
2020-05-11 03:00:00 17.6 15 Sudoeste 32 Sudoeste 0 -- -- 84
2020-05-11 02:00:00 17.4 14 Sudoeste 31 Sudoeste 0 -- -- 83
2020-05-11 01:00:00 17.1 18 Sudoeste 30 Sudoeste 0 -- -- 81
2020-05-11 00:00:00 17.1 19 Sudoeste 32 Sudoeste 0 -- -- 78
2020-05-10 23:00:00 17.2 21 Sudoeste 34 Sudoeste 0 -- -- 78
2020-05-10 22:00:00 17.3 23 Sudoeste 41 Sudoeste 0 -- -- 79
2020-05-10 21:00:00 18 26 Oeste 41 Sudoeste 0 -- -- 78
2020-05-10 20:00:00 18.2 28 Oeste 44 Sudoeste 0 -- -- 75
2020-05-10 19:00:00 18.9 24 Sudoeste 45 Sudoeste 0 -- -- 75
2020-05-10 18:00:00 19.2 30 Sudoeste 50 Sudoeste 0 -- -- 76
2020-05-10 17:00:00 19.4 32 Sudoeste 51 Sudoeste 0 -- -- 74
2020-05-10 16:00:00 19.8 28 Oeste 46 Oeste 0 -- -- 77
2020-05-10 15:00:00 20 24 Oeste 39 Sudoeste 0 -- -- 81
2020-05-10 14:00:00 18.4 18 Oeste 29 Oeste 0.6 -- -- 89
2020-05-10 13:00:00 17.8 14 Sudoeste 31 Sudoeste 3.2 -- -- 89
2020-05-10 12:00:00 18.9 19 Sudoeste 30 Sudoeste 0.4 -- -- 79
2020-05-10 11:00:00 18.4 22 Sudoeste 32 Sudoeste 0.4 -- -- 84
2020-05-10 10:00:00 17.6 16 Sudoeste 30 Sudoeste 0.2 -- -- 87
2020-05-10 09:00:00 17.3 18 Oeste 28 Sudoeste 0 -- -- 85
2020-05-10 08:00:00 16 21 Sudoeste 36 Oeste 6 -- -- 91
2020-05-10 07:00:00 16.9 14 Oeste 26 Oeste 0 -- -- 81
2020-05-10 06:00:00 16.8 16 Oeste 26 Oeste 0 -- -- 81
2020-05-10 05:00:00 16.8 18 Oeste 31 Oeste 0 -- -- 80
2020-05-10 04:00:00 16.9 19 Oeste 35 Oeste 0 -- -- 79
2020-05-10 03:00:00 17.2 22 Oeste 36 Oeste 0 -- -- 81
2020-05-10 02:00:00 17.2 19 Oeste 33 Sudoeste 0 -- -- 83
2020-05-10 01:00:00 17.7 19 Oeste 32 Sudoeste 0 -- -- 76
2020-05-10 00:00:00 17.8 21 Sudoeste 33 Oeste 0 -- -- 83
2020-05-09 23:00:00 17.7 17 Sudoeste 28 Sudoeste 0 -- -- 82
2020-05-09 22:00:00 17.3 15 Sudoeste 27 Sudoeste 0 -- -- 88
2020-05-09 21:00:00 16.8 14 Sudoeste 27 Sudoeste 0 -- -- 88
2020-05-09 20:00:00 16.3 8 Sudoeste 16 Sudoeste 0.2 -- -- 94
2020-05-09 19:00:00 15.4 15 Oeste 46 Sudoeste 1 -- -- 95
2020-05-09 18:00:00 20.5 22 Sur 41 Sur 0 -- -- 70
2020-05-09 17:00:00 22.4 19 Sudoeste 37 Sudoeste 0 -- -- 67
2020-05-09 16:00:00 21.7 18 Sur 33 Sur 0 -- -- 68
2020-05-09 15:00:00 22 17 Sur 31 Sur 0 -- -- 64
2020-05-09 14:00:00 21.4 18 Sudoeste 31 Sudoeste 0 -- -- 65
2020-05-09 13:00:00 20.8 16 Sudoeste 27 Sudoeste 0 -- -- 65
2020-05-09 12:00:00 20.5 12 Sudoeste 21 Sudoeste 0 -- -- 66
2020-05-09 11:00:00 18.8 13 Sudoeste 22 Sudoeste 0 -- -- 73
2020-05-09 10:00:00 18.4 11 Oeste 17 Sudoeste 0 -- -- 76
2020-05-09 09:00:00 17.7 12 Oeste 19 Sudoeste 0 -- -- 79
2020-05-09 08:00:00 17.3 12 Oeste 23 Sudoeste 0 -- -- 81
2020-05-09 07:00:00 16.7 15 Sudoeste 23 Sudoeste 0 -- -- 81
2020-05-09 06:00:00 16.3 9 Sudoeste 22 Sudoeste 0 -- -- 80
2020-05-09 05:00:00 16.8 11 Sudoeste 24 Sudoeste 0 -- -- 81
2020-05-09 04:00:00 17 13 Sudoeste 25 Sudoeste 0 -- -- 79
2020-05-09 03:00:00 17.1 9 Sudoeste 24 Sudoeste 0 -- -- 79
2020-05-09 02:00:00 17.1 10 Sudoeste 28 Sudoeste 0 -- -- 77
2020-05-09 01:00:00 17.4 13 Sudoeste 30 Sudoeste 0 -- -- 78
2020-05-09 00:00:00 17.4 13 Sudoeste 26 Sudoeste 0 -- -- 82
2020-05-08 23:00:00 17.5 10 Sudoeste 21 Sudoeste 0 -- -- 82
2020-05-08 22:00:00 17.8 11 Sudoeste 20 Sudoeste 0 -- -- 81
2020-05-08 21:00:00 18.7 12 Sudoeste 26 Sudoeste 0 -- -- 79
2020-05-08 20:00:00 20.1 17 Oeste 25 Sudoeste 0 -- -- 75
2020-05-08 19:00:00 20.9 19 Sudoeste 28 Sudoeste 0 -- -- 73
2020-05-08 18:00:00 21.4 13 Sudoeste 28 Sudoeste 0 -- -- 72
2020-05-08 17:00:00 21.9 16 Sudoeste 37 Sudoeste 0 -- -- 71
2020-05-08 16:00:00 22 22 Sudoeste 35 Sudoeste 0 -- -- 69
2020-05-08 15:00:00 21.7 17 Sudoeste 29 Sudoeste 0 -- -- 75
2020-05-08 14:00:00 22.3 18 Sudoeste 35 Sur 0 -- -- 76
2020-05-08 13:00:00 22.3 18 Sur 35 Sur 0 -- -- 74
2020-05-08 12:00:00 21.9 20 Sur 41 Sudeste 0 -- -- 77
2020-05-08 11:00:00 21.9 29 Sudeste 41 Sudeste 0 -- -- 71
2020-05-08 10:00:00 21.7 18 Sudeste 29 Sudeste 0 -- -- 68
2020-05-08 09:00:00 19.7 11 Sudeste 19 Este 0 -- -- 74
2020-05-08 08:00:00 16.4 8 Sudeste 14 Sudeste 0 -- -- 86
2020-05-08 07:00:00 16.1 5 Este 6 Este 0 -- -- 85
2020-05-08 06:00:00 17.5 5 Este 9 Sudeste 0 -- -- 81
2020-05-08 05:00:00 17.9 3 Sur 28 Sudeste 0 -- -- 78
2020-05-08 04:00:00 18.9 16 Sudeste 27 Sudeste 0 -- -- 71
2020-05-08 03:00:00 19.1 14 Sudeste 31 Este 0 -- -- 71
2020-05-08 02:00:00 19.3 15 Sudeste 31 Sudeste 0 -- -- 72
2020-05-08 01:00:00 19.7 18 Sudeste 37 Sudeste 0 -- -- 71
2020-05-08 00:00:00 20.2 22 Sudeste 37 Sudeste 0 -- -- 69
2020-05-07 23:00:00 20.9 23 Sudeste 40 Sudeste 0 -- -- 64
2020-05-07 22:00:00 21.6 23 Sudeste 44 Sudeste 0 -- -- 61
2020-05-07 21:00:00 22.9 29 Sudeste 50 Sudeste 0 -- -- 56
2020-05-07 20:00:00 25.1 26 Sudeste 48 Este 0 -- -- 51
2020-05-07 19:00:00 26.7 30 Sudeste 54 Este 0 -- -- 50
2020-05-07 18:00:00 27.3 28 Sudeste 53 Sudeste 0 -- -- 51
2020-05-07 17:00:00 27.7 28 Sudeste 44 Este 0 -- -- 52
2020-05-07 16:00:00 27.7 27 Sudeste 44 Sudeste 0 -- -- 52
2020-05-07 15:00:00 27.2 25 Este 50 Sudeste 0 -- -- 53
2020-05-07 14:00:00 26.2 27 Este 48 Este 0 -- -- 53
2020-05-07 13:00:00 24.5 26 Este 44 Sudeste 0 -- -- 62
2020-05-07 12:00:00 23.8 26 Este 48 Este 0 -- -- 64
2020-05-07 11:00:00 22.8 5 Este 13 Este 0 -- -- 63
2020-05-07 10:00:00 19.8 3 Sudoeste 5 Nordeste 0 -- -- 72
2020-05-07 09:00:00 18.2 0 Calma 6 Este 0 -- -- 81
2020-05-07 08:00:00 17.2 5 Nordeste 12 Nordeste 0 -- -- 82
2020-05-07 07:00:00 16.1 5 Este 8 Este 0 -- -- 88
2020-05-07 06:00:00 15.9 2 Nordeste 4 Este 0 -- -- 90
2020-05-07 05:00:00 16.1 3 Norte 5 Este 0 -- -- 88
2020-05-07 04:00:00 16.6 0 Calma 5 Este 0 -- -- 86
2020-05-07 03:00:00 17.8 2 Este 8 Norte 0 -- -- 89
2020-05-07 02:00:00 17.7 0 Calma 9 Sudeste 0 -- -- 88
2020-05-07 01:00:00 18.4 5 Sudeste 14 Este 0 -- -- 89
2020-05-07 00:00:00 19.3 2 Norte 6 Noroeste 0 -- -- 90
2020-05-06 23:00:00 20.2 3 Noroeste 17 Noroeste 0 -- -- 87
2020-05-06 22:00:00 20.2 10 Noroeste 15 Noroeste 0 -- -- 84
2020-05-06 21:00:00 20.8 12 Noroeste 25 Oeste 0 -- -- 80
2020-05-06 20:00:00 22.7 15 Oeste 26 Oeste 0 -- -- 69
2020-05-06 19:00:00 23.9 17 Oeste 30 Oeste 0 -- -- 63
2020-05-06 18:00:00 24.4 18 Oeste 28 Oeste 0 -- -- 61
2020-05-06 17:00:00 24.1 17 Oeste 28 Oeste 0 -- -- 63
2020-05-06 16:00:00 24.4 18 Oeste 27 Oeste 0 -- -- 65
2020-05-06 15:00:00 23.5 16 Oeste 26 Oeste 0 -- -- 68
2020-05-06 14:00:00 23.3 14 Oeste 19 Noroeste 0 -- -- 71
2020-05-06 13:00:00 23.9 12 Oeste 17 Noroeste 0 -- -- 64
2020-05-06 12:00:00 22.9 9 Norte 20 Norte 0 -- -- 60
2020-05-06 11:00:00 21 9 Norte 17 Norte 0 -- -- 67
2020-05-06 10:00:00 17.7 6 Norte 15 Noroeste 0 -- -- 79
2020-05-06 09:00:00 16.2 8 Norte 15 Norte 0 -- -- 86
2020-05-06 08:00:00 15.3 4 Norte 12 Norte 0 -- -- 89
2020-05-06 07:00:00 15.5 4 Norte 17 Norte 0 -- -- 86
2020-05-06 06:00:00 15.7 5 Norte 8 Norte 0 -- -- 86
2020-05-06 05:00:00 17.9 5 Noroeste 17 Noroeste 0 -- -- 83
2020-05-06 04:00:00 18.3 10 Noroeste 22 Noroeste 0 -- -- 80
2020-05-06 03:00:00 18.7 12 Noroeste 28 Noroeste 0 -- -- 79
2020-05-06 02:00:00 19.1 15 Noroeste 23 Noroeste 0 -- -- 80
2020-05-06 01:00:00 18.5 14 Oeste 27 Oeste 0 -- -- 91
2020-05-06 00:00:00 18.5 17 Oeste 29 Oeste 0 -- -- 89
2020-05-05 23:00:00 18.6 17 Oeste 32 Oeste 0 -- -- 85
2020-05-05 22:00:00 18.7 21 Oeste 35 Oeste 0 -- -- 82
2020-05-05 21:00:00 19 22 Oeste 32 Oeste 0 -- -- 82
2020-05-05 20:00:00 20.2 17 Oeste 32 Oeste 0 -- -- 76
2020-05-05 19:00:00 20.9 21 Oeste 31 Sudoeste 0 -- -- 73
2020-05-05 18:00:00 21.4 20 Oeste 32 Oeste 0 -- -- 65
2020-05-05 17:00:00 21.7 23 Oeste 30 Oeste 0 -- -- 62
2020-05-05 16:00:00 22 20 Oeste 30 Oeste 0 -- -- 64
2020-05-05 15:00:00 21.6 19 Oeste 26 Oeste 0 -- -- 63
2020-05-05 14:00:00 21.5 18 Oeste 26 Oeste 0 -- -- 70
2020-05-05 13:00:00 21.4 15 Oeste 21 Oeste 0 -- -- 76
2020-05-05 12:00:00 20.8 9 Oeste 17 Norte 0 -- -- 80
2020-05-05 11:00:00 20.3 6 Nordeste 14 Norte 0 -- -- 77
2020-05-05 10:00:00 18.8 5 Norte 13 Norte 0 -- -- 87
2020-05-05 09:00:00 17 5 Norte 14 Norte 0 -- -- 98
2020-05-05 08:00:00 15.4 6 Norte 21 Noroeste 0 -- -- 96
2020-05-05 07:00:00 17.5 13 Noroeste 24 Noroeste 0 -- -- 92
2020-05-05 06:00:00 17.5 14 Oeste 21 Oeste 0 -- -- 93
2020-05-05 05:00:00 17.6 12 Oeste 21 Oeste 0 -- -- 90
2020-05-05 04:00:00 17.7 14 Oeste 22 Oeste 0 -- -- 90
2020-05-05 03:00:00 17.9 11 Oeste 31 Sudoeste 0 -- -- 90
2020-05-05 02:00:00 18.3 18 Sudoeste 30 Sudoeste 0 -- -- 93
2020-05-05 01:00:00 18.4 17 Sudoeste 31 Sudoeste 0 -- -- 92
2020-05-05 00:00:00 18.5 12 Sudoeste 20 Sudoeste 0 -- -- 92
2020-05-04 23:00:00 18.8 8 Sudoeste 24 Sudoeste 0 -- -- 92
2020-05-04 22:00:00 19 11 Sudoeste 23 Sudoeste 0 -- -- 91
2020-05-04 21:00:00 19.6 13 Sudoeste 23 Sudoeste 0 -- -- 87
2020-05-04 20:00:00 20.7 13 Sudoeste 30 Sudoeste 0 -- -- 81
2020-05-04 19:00:00 21.8 14 Sudoeste 25 Sudoeste 0 -- -- 77
2020-05-04 18:00:00 22.2 17 Sudoeste 31 Sudoeste 0 -- -- 75
2020-05-04 17:00:00 22.9 17 Sudoeste 30 Sudoeste 0 -- -- 71
2020-05-04 16:00:00 23.2 14 Sudoeste 28 Sur 0 -- -- 70
2020-05-04 15:00:00 23.3 13 Sur 32 Sudoeste 0 -- -- 70
2020-05-04 14:00:00 22.4 17 Sudoeste 37 Sudoeste 0 -- -- 76
2020-05-04 13:00:00 22.1 19 Sudoeste 34 Sudoeste 0 -- -- 79
2020-05-04 12:00:00 22.7 14 Sudoeste 43 Sur 0 -- -- 79
2020-05-04 11:00:00 23.4 27 Sur 55 Sur 0 -- -- 67
2020-05-04 10:00:00 23.1 21 Sur 32 Sur 0 -- -- 62
2020-05-04 09:00:00 22.5 8 Sudoeste 41 Sudeste 0 -- -- 63
2020-05-04 08:00:00 23.4 24 Sudeste 46 Sudeste 0 -- -- 48
2020-05-04 07:00:00 23 17 Sudeste 37 Sudeste 0 -- -- 49
2020-05-04 06:00:00 23.5 23 Sudeste 45 Sudeste 0 -- -- 48
2020-05-04 05:00:00 23.8 25 Sudeste 48 Sudeste 0 -- -- 46
2020-05-04 04:00:00 24.1 32 Sudeste 54 Sudeste 0 -- -- 44
2020-05-04 03:00:00 24.4 26 Sudeste 49 Sudeste 0 -- -- 44
2020-05-04 02:00:00 24.7 28 Sudeste 49 Este 0 -- -- 44
2020-05-04 01:00:00 24.5 27 Sudeste 40 Este 0 -- -- 44
2020-05-04 00:00:00 24 20 Este 35 Este 0 -- -- 45
2020-05-03 23:00:00 24.3 19 Este 34 Sudeste 0 -- -- 45
2020-05-03 22:00:00 25 15 Este 27 Este 0 -- -- 47
2020-05-03 21:00:00 27.3 15 Sudeste 31 Este 0 -- -- 45
2020-05-03 20:00:00 30 15 Sudeste 26 Sudeste 0 -- -- 43
2020-05-03 19:00:00 26.8 7 Oeste 11 Oeste 0 -- -- 64
2020-05-03 18:00:00 26.6 9 Oeste 16 Oeste 0 -- -- 65
2020-05-03 17:00:00 28.3 10 Oeste 28 Este 0 -- -- 60
2020-05-03 16:00:00 34.1 17 Sudeste 31 Este 0 -- -- 35
2020-05-03 15:00:00 33.3 17 Sudeste 33 Este 0 -- -- 38
2020-05-03 14:00:00 32 19 Sudeste 32 Sudeste 0 -- -- 40
2020-05-03 13:00:00 30.6 20 Este 34 Este 0 -- -- 41
2020-05-03 12:00:00 28.4 15 Este 25 Este 0 -- -- 50
2020-05-03 11:00:00 25.4 13 Este 23 Este 0 -- -- 58
2020-05-03 10:00:00 22.8 8 Nordeste 15 Nordeste 0 -- -- 70
2020-05-03 09:00:00 19.1 6 Nordeste 12 Este 0 -- -- 82
2020-05-03 08:00:00 15.4 6 Nordeste 11 Nordeste 0 -- -- 91
2020-05-03 07:00:00 15.6 5 Nordeste 9 Este 0 -- -- 88
2020-05-03 06:00:00 16.5 4 Este 10 Este 0 -- -- 85
2020-05-03 05:00:00 16.3 4 Este 8 Este 0 -- -- 88
2020-05-03 04:00:00 16.2 5 Este 8 Este 0 -- -- 91
2020-05-03 03:00:00 16.6 3 Este 5 Este 0 -- -- 90
2020-05-03 02:00:00 17.2 4 Sudeste 9 Este 0 -- -- 88
2020-05-03 01:00:00 18.7 3 Este 6 Noroeste 0 -- -- 88
2020-05-03 00:00:00 19.6 4 Noroeste 12 Noroeste 0 -- -- 86
2020-05-02 23:00:00 19.8 6 Noroeste 13 Noroeste 0 -- -- 87
2020-05-02 22:00:00 20.1 10 Noroeste 16 Oeste 0 -- -- 87
2020-05-02 21:00:00 21.3 11 Noroeste 21 Oeste 0 -- -- 84
2020-05-02 20:00:00 23.1 12 Oeste 21 Oeste 0 -- -- 76
2020-05-02 19:00:00 24.1 12 Oeste 19 Oeste 0 -- -- 75
2020-05-02 18:00:00 24.4 13 Oeste 22 Oeste 0 -- -- 72
2020-05-02 17:00:00 24.3 14 Oeste 24 Oeste 0 -- -- 72
2020-05-02 16:00:00 23.9 14 Oeste 20 Oeste 0 -- -- 77
2020-05-02 15:00:00 24.6 14 Oeste 20 Oeste 0 -- -- 77
2020-05-02 14:00:00 25.2 9 Oeste 13 Oeste 0 -- -- 74
2020-05-02 13:00:00 24.4 8 Oeste 13 Noroeste 0 -- -- 75
2020-05-02 12:00:00 22.7 8 Norte 14 Norte 0 -- -- 75
2020-05-02 11:00:00 21.5 7 Norte 14 Noroeste 0 -- -- 79
2020-05-02 10:00:00 19.5 7 Nordeste 13 Nordeste 0 -- -- 84
2020-05-02 09:00:00 17.3 6 Nordeste 10 Nordeste 0 -- -- 94
2020-05-02 08:00:00 15.6 5 Norte 12 Norte 0 -- -- 97
2020-05-02 07:00:00 16.2 3 Norte 17 Norte 0 -- -- 95
2020-05-02 06:00:00 16.6 5 Noroeste 10 Noroeste 0 -- -- 98
2020-05-02 05:00:00 14.9 0 Calma 4 Este 0 -- -- 96
2020-05-02 04:00:00 15.5 0 Calma 4 Este 0 -- -- 95
2020-05-02 03:00:00 16.5 0 Calma 5 Noroeste 0 -- -- 93
2020-05-02 02:00:00 17.4 2 Norte 6 Noroeste 0 -- -- 93
2020-05-02 01:00:00 17.9 4 Noroeste 13 Oeste 0 -- -- 92
2020-05-02 00:00:00 18.2 9 Oeste 17 Oeste 0 -- -- 91